createdAt,value
2023-02-26T00:00:13.169Z,97370.34
2023-02-26T00:02:48.913Z,97373.69
2023-02-26T00:05:22.026Z,97377.44
2023-02-26T00:07:56.416Z,97372.38
2023-02-26T00:10:29.542Z,97377.41
2023-02-26T00:13:03.232Z,97382.44
2023-02-26T00:15:36.957Z,97382.28
2023-02-26T00:18:16.200Z,97380.81
2023-02-26T00:20:49.991Z,97387.81
2023-02-26T00:23:25.132Z,97390.59
2023-02-26T00:25:59.627Z,97386.25
2023-02-26T00:28:33.300Z,97391.28
2023-02-26T00:31:07.357Z,97385.75
2023-02-26T00:33:41.787Z,97395.03
2023-02-26T00:36:24.250Z,97395.34
2023-02-26T00:39:17.229Z,97390.78
2023-02-26T00:41:50.988Z,97394.59
2023-02-26T00:44:24.795Z,97397.09
2023-02-26T00:47:03.163Z,97392.06
2023-02-26T00:49:53.530Z,97398.84
2023-02-26T00:52:36.628Z,97398.59
2023-02-26T00:55:11.210Z,97403.16
2023-02-26T00:57:44.174Z,97399.63
2023-02-26T01:00:18.916Z,97398.47
2023-02-26T01:02:52.618Z,97406.88
2023-02-26T01:05:26.763Z,97415.03
2023-02-26T01:08:06.176Z,97408.09
2023-02-26T01:10:42.264Z,97407.56
2023-02-26T01:13:15.973Z,97404.28
2023-02-26T01:15:54.196Z,97404.03
2023-02-26T01:18:34.609Z,97411.56
2023-02-26T01:21:15.832Z,97407.41
2023-02-26T01:23:52.582Z,97410.25
2023-02-26T01:26:30.170Z,97404.44
2023-02-26T01:29:03.711Z,97400.06
2023-02-26T01:31:44.368Z,97408.03
2023-02-26T01:34:24.240Z,97405.09
2023-02-26T01:37:04.234Z,97400.94
2023-02-26T01:39:45.067Z,97408.38
2023-02-26T01:42:23.048Z,97401.59
2023-02-26T01:45:01.839Z,97404.69
2023-02-26T01:47:42.207Z,97409.56
2023-02-26T01:50:19.278Z,97412.06
2023-02-26T01:53:24.572Z,97422.59
2023-02-26T01:56:01.717Z,97415.53
2023-02-26T01:58:37.881Z,97417.03
2023-02-26T02:01:11.127Z,97418.50
2023-02-26T02:03:46.206Z,97418.25
2023-02-26T02:06:22.927Z,97419.72
2023-02-26T02:08:56.748Z,97420.19
2023-02-26T02:11:29.867Z,97420.38
2023-02-26T02:14:13.526Z,97423.63
2023-02-26T02:16:56.040Z,97419.81
2023-02-26T02:20:14.076Z,97427.22
2023-02-26T02:23:09.467Z,97423.44
2023-02-26T02:26:27.664Z,97423.59
2023-02-26T02:29:52.824Z,97430.56
2023-02-26T02:32:32.405Z,97434.16
2023-02-26T02:35:14.071Z,97435.47
2023-02-26T02:37:53.879Z,97431.78
2023-02-26T02:40:31.124Z,97440.19
2023-02-26T02:43:08.410Z,97439.19
2023-02-26T02:45:46.798Z,97439.91
2023-02-26T02:48:26.121Z,97438.13
2023-02-26T02:51:02.925Z,97441.81
2023-02-26T02:53:39.125Z,97442.41
2023-02-26T02:56:18.452Z,97439.47
2023-02-26T02:58:56.301Z,97439.50
2023-02-26T03:01:30.284Z,97440.69
2023-02-26T03:04:09.247Z,97441.88
2023-02-26T03:06:43.466Z,97444.38
2023-02-26T03:09:17.101Z,97447.06
2023-02-26T03:11:50.105Z,97445.28
2023-02-26T03:14:23.367Z,97450.47
2023-02-26T03:17:21.355Z,97450.28
2023-02-26T03:20:10.631Z,97448.38
2023-02-26T03:22:54.577Z,97460.50
2023-02-26T03:25:32.393Z,97461.78
2023-02-26T03:28:15.775Z,97469.31
2023-02-26T03:30:56.924Z,97472.44
2023-02-26T03:33:38.466Z,97475.81
2023-02-26T03:36:20.434Z,97475.53
2023-02-26T03:38:58.396Z,97477.28
2023-02-26T03:41:37.623Z,97480.25
2023-02-26T03:44:15.496Z,97482.31
2023-02-26T03:46:55.011Z,97481.41
2023-02-26T03:49:33.002Z,97479.94
2023-02-26T03:52:08.085Z,97483.63
2023-02-26T03:54:47.980Z,97489.66
2023-02-26T03:57:20.963Z,97489.94
2023-02-26T03:59:54.515Z,97502.47
2023-02-26T04:02:33.084Z,97500.31
2023-02-26T04:05:12.702Z,97505.00
2023-02-26T04:07:49.524Z,97510.00
2023-02-26T04:10:33.107Z,97511.31
2023-02-26T04:13:06.111Z,97513.81
2023-02-26T04:15:39.629Z,97506.00
2023-02-26T04:18:12.611Z,97506.00
2023-02-26T04:20:45.603Z,97514.28
2023-02-26T04:23:20.131Z,97521.78
2023-02-26T04:25:53.399Z,97513.19
2023-02-26T04:28:26.496Z,97528.22
2023-02-26T04:30:59.488Z,97524.56
2023-02-26T04:33:33.261Z,97520.72
2023-02-26T04:36:07.035Z,97524.84
2023-02-26T04:38:41.407Z,97522.91
2023-02-26T04:41:14.472Z,97531.06
2023-02-26T04:43:47.477Z,97528.72
2023-02-26T04:46:20.631Z,97531.22
2023-02-26T04:48:53.836Z,97537.28
2023-02-26T04:51:27.096Z,97540.09
2023-02-26T04:54:01.479Z,97539.66
2023-02-26T04:56:34.510Z,97544.97
2023-02-26T04:59:07.761Z,97548.63
2023-02-26T05:01:40.861Z,97556.13
2023-02-26T05:04:14.049Z,97556.53
2023-02-26T05:06:47.056Z,97561.06
2023-02-26T05:09:21.874Z,97567.56
2023-02-26T05:11:54.939Z,97568.38
2023-02-26T05:14:27.926Z,97565.41
2023-02-26T05:17:00.920Z,97571.28
2023-02-26T05:19:34.292Z,97574.53
2023-02-26T05:22:07.274Z,97573.56
2023-02-26T05:24:42.205Z,97575.78
2023-02-26T05:27:15.912Z,97574.38
2023-02-26T05:29:48.981Z,97574.53
2023-02-26T05:32:22.045Z,97582.03
2023-02-26T05:34:55.024Z,97583.56
2023-02-26T05:37:28.059Z,97588.63
2023-02-26T05:40:02.362Z,97592.75
2023-02-26T05:42:35.369Z,97589.94
2023-02-26T05:45:10.187Z,97585.63
2023-02-26T05:47:43.281Z,97593.75
2023-02-26T05:50:16.769Z,97592.47
2023-02-26T05:52:49.887Z,97598.09
2023-02-26T05:55:24.783Z,97596.06
2023-02-26T05:57:57.783Z,97604.38
2023-02-26T06:00:30.950Z,97603.50
2023-02-26T06:03:04.189Z,97605.56
2023-02-26T06:05:37.359Z,97608.38
2023-02-26T06:08:12.119Z,97617.44
2023-02-26T06:10:46.474Z,97621.69
2023-02-26T06:13:20.075Z,97614.44
2023-02-26T06:15:53.712Z,97613.84
2023-02-26T06:18:27.333Z,97625.59
2023-02-26T06:21:00.416Z,97626.22
2023-02-26T06:23:33.467Z,97638.16
2023-02-26T06:26:08.038Z,97635.53
2023-02-26T06:28:41.699Z,97635.09
2023-02-26T06:31:14.742Z,97640.72
2023-02-26T06:33:47.917Z,97642.69
2023-02-26T06:36:20.977Z,97649.63
2023-02-26T06:38:54.047Z,97658.31
2023-02-26T06:41:28.451Z,97658.97
2023-02-26T06:44:01.466Z,97662.34
2023-02-26T06:46:34.598Z,97662.03
2023-02-26T06:49:07.774Z,97664.13
2023-02-26T06:51:40.780Z,97665.91
2023-02-26T06:54:14.112Z,97680.09
2023-02-26T06:56:48.426Z,97670.25
2023-02-26T06:59:22.058Z,97676.91
2023-02-26T07:01:55.043Z,97679.31
2023-02-26T07:04:28.025Z,97684.03
2023-02-26T07:07:01.076Z,97689.66
2023-02-26T07:09:34.056Z,97694.94
2023-02-26T07:12:09.131Z,97694.38
2023-02-26T07:14:43.046Z,97700.00
2023-02-26T07:17:20.438Z,97697.81
2023-02-26T07:19:54.236Z,97708.72
2023-02-26T07:22:27.288Z,97703.56
2023-02-26T07:25:01.058Z,97704.13
2023-02-26T07:27:35.466Z,97709.44
2023-02-26T07:30:10.769Z,97706.94
2023-02-26T07:32:43.900Z,97711.84
2023-02-26T07:35:17.154Z,97714.06
2023-02-26T07:37:50.155Z,97707.13
2023-02-26T07:40:23.176Z,97705.97
2023-02-26T07:42:57.524Z,97716.88
2023-02-26T07:45:30.506Z,97712.59
2023-02-26T07:48:03.473Z,97714.66
2023-02-26T07:50:36.479Z,97720.72
2023-02-26T07:53:09.844Z,97719.09
2023-02-26T07:55:42.982Z,97715.53
2023-02-26T07:58:17.365Z,97716.75
2023-02-26T08:00:52.621Z,97717.75
2023-02-26T08:03:25.763Z,97714.50
2023-02-26T08:06:00.276Z,97727.47
2023-02-26T08:08:33.346Z,97733.38
2023-02-26T08:11:06.405Z,97725.25
2023-02-26T08:13:40.793Z,97727.75
2023-02-26T08:16:13.883Z,97743.84
2023-02-26T08:18:46.947Z,97734.22
2023-02-26T08:21:19.933Z,97735.09
2023-02-26T08:23:54.132Z,97737.16
2023-02-26T08:26:27.816Z,97736.97
2023-02-26T08:29:02.406Z,97738.09
2023-02-26T08:31:36.065Z,97734.34
2023-02-26T08:34:09.100Z,97735.22
2023-02-26T08:36:42.204Z,97731.75
2023-02-26T08:39:15.290Z,97729.13
2023-02-26T08:41:48.267Z,97742.72
2023-02-26T08:44:22.595Z,97745.94
2023-02-26T08:46:56.388Z,97750.94
2023-02-26T08:49:29.417Z,97753.22
2023-02-26T08:52:02.441Z,97748.34
2023-02-26T08:54:35.464Z,97754.66
2023-02-26T08:57:08.418Z,97757.06
2023-02-26T08:59:42.812Z,97760.31
2023-02-26T09:02:16.310Z,97762.25
2023-02-26T09:04:49.352Z,97766.00
2023-02-26T09:07:22.376Z,97761.44
2023-02-26T09:09:55.428Z,97758.13
2023-02-26T09:12:28.496Z,97770.53
2023-02-26T09:15:03.543Z,97777.03
2023-02-26T09:17:37.449Z,97771.34
2023-02-26T09:20:13.576Z,97779.81
2023-02-26T09:22:46.651Z,97782.81
2023-02-26T09:25:19.956Z,97779.28
2023-02-26T09:27:52.994Z,97781.22
2023-02-26T09:30:27.472Z,97785.31
2023-02-26T09:33:00.699Z,97788.53
2023-02-26T09:35:33.848Z,97789.00
2023-02-26T09:38:06.867Z,97803.63
2023-02-26T09:40:49.995Z,97803.66
2023-02-26T09:43:55.272Z,97795.41
2023-02-26T09:46:40.394Z,97810.50
2023-02-26T09:49:23.524Z,97811.09
2023-02-26T09:52:04.908Z,97820.69
2023-02-26T09:54:48.484Z,97818.16
2023-02-26T09:57:32.198Z,97819.38
2023-02-26T10:00:22.047Z,97814.91
2023-02-26T10:03:16.264Z,97823.38
2023-02-26T10:06:14.397Z,97818.47
2023-02-26T10:09:04.103Z,97816.84
2023-02-26T10:11:46.420Z,97823.34
2023-02-26T10:14:27.304Z,97823.22
2023-02-26T10:17:08.306Z,97828.66
2023-02-26T10:19:46.926Z,97824.38
2023-02-26T10:22:31.244Z,97834.44
2023-02-26T10:25:10.889Z,97832.38
2023-02-26T10:27:58.699Z,97832.69
2023-02-26T10:30:38.802Z,97839.50
2023-02-26T10:33:22.068Z,97841.06
2023-02-26T10:36:04.657Z,97841.50
2023-02-26T10:38:38.054Z,97838.50
2023-02-26T10:41:15.916Z,97832.72
2023-02-26T10:43:53.622Z,97838.00
2023-02-26T10:46:37.821Z,97827.91
2023-02-26T10:49:36.861Z,97838.16
2023-02-26T10:52:17.952Z,97838.28
2023-02-26T10:55:26.192Z,97834.34
2023-02-26T10:58:06.947Z,97837.47
2023-02-26T11:00:42.038Z,97835.41
2023-02-26T11:03:20.247Z,97836.81
2023-02-26T11:05:53.321Z,97836.00
2023-02-26T11:08:30.722Z,97834.03
2023-02-26T11:11:06.327Z,97830.22
2023-02-26T11:13:40.686Z,97831.50
2023-02-26T11:16:18.524Z,97829.88
2023-02-26T11:18:55.653Z,97830.75
2023-02-26T11:21:32.493Z,97826.00
2023-02-26T11:24:13.299Z,97848.81
2023-02-26T11:26:50.156Z,97839.88
2023-02-26T11:29:26.646Z,97846.50
2023-02-26T11:32:02.532Z,97848.88
2023-02-26T11:34:36.555Z,97858.56
2023-02-26T11:37:09.597Z,97853.16
2023-02-26T11:39:44.242Z,97844.44
2023-02-26T11:42:19.067Z,97846.13
2023-02-26T11:44:52.913Z,97849.94
2023-02-26T11:47:30.996Z,97836.78
2023-02-26T11:50:15.128Z,97842.88
2023-02-26T11:52:56.529Z,97861.88
2023-02-26T11:55:35.711Z,97846.78
2023-02-26T11:58:22.947Z,97837.22
2023-02-26T12:00:59.836Z,97845.81
2023-02-26T12:03:40.081Z,97847.53
2023-02-26T12:06:19.616Z,97834.09
2023-02-26T12:08:54.066Z,97848.41
2023-02-26T12:11:59.897Z,97846.25
2023-02-26T12:14:50.189Z,97845.09
2023-02-26T12:17:37.938Z,97854.84
2023-02-26T12:20:22.727Z,97851.47
2023-02-26T12:23:16.317Z,97853.31
2023-02-26T12:26:17.128Z,97854.69
2023-02-26T12:29:06.173Z,97856.78
2023-02-26T12:32:11.530Z,97852.63
2023-02-26T12:35:32.228Z,97850.47
2023-02-26T12:38:19.686Z,97844.69
2023-02-26T12:41:21.398Z,97848.13
2023-02-26T12:43:57.913Z,97845.16
2023-02-26T12:46:55.118Z,97845.38
2023-02-26T12:49:55.226Z,97841.44
2023-02-26T12:53:05.201Z,97857.25
2023-02-26T12:55:52.705Z,97857.44
2023-02-26T12:58:45.372Z,97857.06
2023-02-26T13:01:36.567Z,97850.25
2023-02-26T13:04:42.390Z,97852.66
2023-02-26T13:07:54.500Z,97848.88
2023-02-26T13:10:42.228Z,97852.59
2023-02-26T13:13:35.164Z,97862.97
2023-02-26T13:16:31.266Z,97869.97
2023-02-26T13:19:14.999Z,97845.81
2023-02-26T13:21:54.042Z,97856.59
2023-02-26T13:24:35.902Z,97850.09
2023-02-26T13:27:10.975Z,97860.00
2023-02-26T13:29:50.729Z,97861.09
2023-02-26T13:32:28.114Z,97851.47
2023-02-26T13:35:06.671Z,97854.69
2023-02-26T13:37:42.658Z,97848.06
2023-02-26T13:40:40.691Z,97863.44
2023-02-26T13:43:30.876Z,97866.41
2023-02-26T13:46:21.206Z,97872.34
2023-02-26T13:49:04.640Z,97868.41
2023-02-26T13:51:41.604Z,97868.66
2023-02-26T13:54:45.795Z,97862.06
2023-02-26T13:57:36.856Z,97871.66
2023-02-26T14:00:26.750Z,97872.34
2023-02-26T14:03:12.038Z,97873.63
2023-02-26T14:06:26.532Z,97870.41
2023-02-26T14:09:06.318Z,97877.44
2023-02-26T14:12:01.217Z,97876.53
2023-02-26T14:14:40.915Z,97874.59
2023-02-26T14:17:44.024Z,97879.28
2023-02-26T14:20:27.281Z,97879.38
2023-02-26T14:23:21.304Z,97872.59
2023-02-26T14:25:54.998Z,97879.09
2023-02-26T14:28:43.855Z,97868.09
2023-02-26T14:31:22.300Z,97880.00
2023-02-26T14:34:15.617Z,97874.84
2023-02-26T14:36:53.188Z,97885.59
2023-02-26T14:39:37.816Z,97896.88
2023-02-26T14:42:15.886Z,97899.31
2023-02-26T14:44:53.478Z,97900.22
2023-02-26T14:47:27.871Z,97900.22
2023-02-26T14:50:01.081Z,97907.88
2023-02-26T14:53:14.322Z,97892.16
2023-02-26T14:56:03.550Z,97895.44
2023-02-26T14:59:14.938Z,97904.25
2023-02-26T15:01:53.053Z,97915.97
2023-02-26T15:05:22.514Z,97905.66
2023-02-26T15:08:24.419Z,97913.56
2023-02-26T15:11:26.081Z,97914.88
2023-02-26T15:14:21.503Z,97921.84
2023-02-26T15:17:08.357Z,97913.53
2023-02-26T15:20:07.900Z,97915.28
2023-02-26T15:23:15.983Z,97917.78
2023-02-26T15:25:51.660Z,97928.22
2023-02-26T15:28:30.347Z,97929.06
2023-02-26T15:31:04.909Z,97938.59
2023-02-26T15:33:38.115Z,97947.38
2023-02-26T15:36:15.841Z,97930.34
2023-02-26T15:38:51.427Z,97941.13
2023-02-26T15:41:26.586Z,97941.13
2023-02-26T15:44:08.636Z,97940.81
2023-02-26T15:46:45.199Z,97931.16
2023-02-26T15:49:25.735Z,97949.97
2023-02-26T15:52:00.972Z,97937.34
2023-02-26T15:54:41.626Z,97938.13
2023-02-26T15:57:16.206Z,97945.34
2023-02-26T15:59:53.368Z,97946.13
2023-02-26T16:02:30.688Z,97952.69
2023-02-26T16:05:04.643Z,97962.59
2023-02-26T16:07:37.764Z,97970.53
2023-02-26T16:10:22.633Z,97962.53
2023-02-26T16:12:56.725Z,97969.09
2023-02-26T16:15:36.600Z,97975.09
2023-02-26T16:18:15.778Z,97983.03
2023-02-26T16:20:51.507Z,97981.66
2023-02-26T16:23:38.713Z,97986.81
2023-02-26T16:26:19.722Z,97997.50
2023-02-26T16:28:59.778Z,97991.97
2023-02-26T16:31:36.975Z,98003.06
2023-02-26T16:34:29.267Z,98002.88
2023-02-26T16:37:28.530Z,98018.34
2023-02-26T16:40:19.977Z,98013.75
2023-02-26T16:43:02.314Z,98014.78
2023-02-26T16:45:50.810Z,98026.66
2023-02-26T16:48:28.218Z,98029.53
2023-02-26T16:51:06.609Z,98044.31
2023-02-26T16:53:45.229Z,98046.84
2023-02-26T16:56:22.062Z,98042.69
2023-02-26T16:59:04.629Z,98053.06
2023-02-26T17:01:41.507Z,98042.97
2023-02-26T17:04:18.605Z,98059.25
2023-02-26T17:06:52.756Z,98059.84
2023-02-26T17:09:38.405Z,98067.53
2023-02-26T17:12:19.630Z,98067.53
2023-02-26T17:14:56.880Z,98070.81
2023-02-26T17:17:30.146Z,98083.69
2023-02-26T17:20:06.166Z,98082.38
2023-02-26T17:22:39.996Z,98069.66
2023-02-26T17:25:17.179Z,98069.66
2023-02-26T17:27:50.827Z,98079.38
2023-02-26T17:30:25.666Z,98085.47
2023-02-26T17:32:59.076Z,98084.13
2023-02-26T17:35:33.432Z,98087.44
2023-02-26T17:38:06.442Z,98099.41
2023-02-26T17:40:40.814Z,98094.22
2023-02-26T17:43:13.827Z,98109.63
2023-02-26T17:45:47.286Z,98112.16
2023-02-26T17:48:20.626Z,98123.56
2023-02-26T17:50:56.496Z,98128.00
2023-02-26T17:53:33.289Z,98127.13
2023-02-26T17:56:11.236Z,98119.72
2023-02-26T17:58:45.519Z,98124.56
2023-02-26T18:01:19.640Z,98120.13
2023-02-26T18:03:54.521Z,98134.94
2023-02-26T18:06:31.068Z,98135.69
2023-02-26T18:09:07.934Z,98131.53
2023-02-26T18:11:42.985Z,98139.84
2023-02-26T18:14:16.025Z,98146.03
2023-02-26T18:16:49.069Z,98139.53
2023-02-26T18:19:22.060Z,98148.53
2023-02-26T18:21:56.443Z,98157.84
2023-02-26T18:24:29.626Z,98149.00
2023-02-26T18:27:02.559Z,98142.34
2023-02-26T18:29:35.530Z,98147.69
2023-02-26T18:32:13.097Z,98141.28
2023-02-26T18:34:46.210Z,98140.66
2023-02-26T18:37:23.726Z,98144.16
2023-02-26T18:39:56.863Z,98148.75
2023-02-26T18:42:29.866Z,98151.53
2023-02-26T18:45:02.859Z,98148.91
2023-02-26T18:47:36.303Z,98151.13
2023-02-26T18:50:13.974Z,98158.19
2023-02-26T18:52:48.338Z,98163.09
2023-02-26T18:55:21.379Z,98165.84
2023-02-26T18:57:54.509Z,98167.44
2023-02-26T19:00:28.584Z,98156.00
2023-02-26T19:03:02.037Z,98170.63
2023-02-26T19:05:35.084Z,98161.31
2023-02-26T19:08:09.742Z,98169.03
2023-02-26T19:10:42.751Z,98179.91
2023-02-26T19:13:15.707Z,98177.31
2023-02-26T19:15:49.632Z,98184.63
2023-02-26T19:18:22.620Z,98189.28
2023-02-26T19:20:55.664Z,98177.50
2023-02-26T19:23:31.023Z,98176.88
2023-02-26T19:26:05.293Z,98182.53
2023-02-26T19:28:38.686Z,98182.47
2023-02-26T19:31:11.721Z,98189.13
2023-02-26T19:33:44.705Z,98190.47
2023-02-26T19:36:21.783Z,98178.91
2023-02-26T19:38:56.098Z,98186.09
2023-02-26T19:41:29.233Z,98195.44
2023-02-26T19:44:02.606Z,98192.97
2023-02-26T19:46:36.003Z,98195.84
2023-02-26T19:49:10.021Z,98203.38
2023-02-26T19:51:43.202Z,98205.38
2023-02-26T19:54:17.796Z,98195.22
2023-02-26T19:56:51.043Z,98209.94
2023-02-26T19:59:23.997Z,98214.25
2023-02-26T20:01:57.181Z,98227.25
2023-02-26T20:04:30.167Z,98232.59
2023-02-26T20:07:03.162Z,98236.28
2023-02-26T20:09:37.777Z,98239.75
2023-02-26T20:12:10.900Z,98234.88
2023-02-26T20:14:44.615Z,98245.41
2023-02-26T20:17:17.579Z,98240.94
2023-02-26T20:19:50.604Z,98247.75
2023-02-26T20:22:24.568Z,98246.59
2023-02-26T20:24:58.965Z,98260.84
2023-02-26T20:27:32.229Z,98250.69
2023-02-26T20:30:07.721Z,98251.75
2023-02-26T20:32:40.988Z,98260.41
2023-02-26T20:35:14.477Z,98256.94
2023-02-26T20:37:47.487Z,98269.00
2023-02-26T20:40:22.009Z,98261.41
2023-02-26T20:42:54.996Z,98262.69
2023-02-26T20:45:28.664Z,98261.09
2023-02-26T20:48:01.784Z,98256.06
2023-02-26T20:50:36.183Z,98274.94
2023-02-26T20:53:09.826Z,98262.97
2023-02-26T20:55:44.158Z,98277.22
2023-02-26T20:58:17.566Z,98280.25
2023-02-26T21:00:50.533Z,98279.22
2023-02-26T21:03:23.740Z,98280.59
2023-02-26T21:05:57.618Z,98285.13
2023-02-26T21:08:30.860Z,98291.72
2023-02-26T21:11:08.445Z,98292.91
2023-02-26T21:13:41.414Z,98292.19
2023-02-26T21:16:14.551Z,98300.03
2023-02-26T21:18:47.696Z,98297.50
2023-02-26T21:21:20.737Z,98292.28
2023-02-26T21:23:54.136Z,98301.41
2023-02-26T21:26:28.456Z,98301.81
2023-02-26T21:29:02.702Z,98297.13
2023-02-26T21:31:35.898Z,98298.03
2023-02-26T21:34:30.243Z,98302.81
2023-02-26T21:37:02.062Z,98302.97
2023-02-26T21:39:37.999Z,98300.75
2023-02-26T21:42:14.416Z,98299.31
2023-02-26T21:44:48.628Z,98303.84
2023-02-26T21:47:22.567Z,98303.75
2023-02-26T21:49:55.551Z,98302.06
2023-02-26T21:52:28.993Z,98304.25
2023-02-26T21:55:02.010Z,98303.59
2023-02-26T21:57:36.336Z,98300.81
2023-02-26T22:00:11.767Z,98313.88
2023-02-26T22:02:45.299Z,98305.31
2023-02-26T22:05:18.393Z,98306.75
2023-02-26T22:07:52.205Z,98300.75
2023-02-26T22:10:25.241Z,98299.94
2023-02-26T22:12:59.581Z,98295.81
2023-02-26T22:15:32.652Z,98289.75
2023-02-26T22:18:05.913Z,98298.81
2023-02-26T22:20:38.931Z,98296.31
2023-02-26T22:23:11.920Z,98294.53
2023-02-26T22:25:44.944Z,98287.38
2023-02-26T22:28:19.244Z,98292.97
2023-02-26T22:30:52.520Z,98292.41
2023-02-26T22:33:26.291Z,98300.03
2023-02-26T22:36:00.277Z,98299.19
2023-02-26T22:38:33.282Z,98302.56
2023-02-26T22:41:06.977Z,98293.91
2023-02-26T22:43:41.417Z,98306.22
2023-02-26T22:46:16.732Z,98299.84
2023-02-26T22:48:49.747Z,98303.22
2023-02-26T22:51:23.358Z,98304.66
2023-02-26T22:53:56.879Z,98308.09
2023-02-26T22:56:30.181Z,98313.38
2023-02-26T22:59:04.570Z,98316.94
2023-02-26T23:01:38.019Z,98305.09
2023-02-26T23:04:11.551Z,98314.56
2023-02-26T23:06:44.512Z,98312.41
2023-02-26T23:09:17.556Z,98313.91
2023-02-26T23:11:51.779Z,98308.81
2023-02-26T23:14:26.141Z,98309.06
2023-02-26T23:16:59.240Z,98316.81
2023-02-26T23:19:32.260Z,98313.72
2023-02-26T23:22:05.324Z,98302.91
2023-02-26T23:24:38.355Z,98306.13
2023-02-26T23:27:11.693Z,98304.47
2023-02-26T23:29:46.580Z,98305.91
2023-02-26T23:32:19.674Z,98310.09
2023-02-26T23:34:52.691Z,98309.91
2023-02-26T23:37:26.262Z,98319.34
2023-02-26T23:39:59.488Z,98321.97
2023-02-26T23:42:32.538Z,98316.22
2023-02-26T23:45:08.686Z,98316.50
2023-02-26T23:47:41.939Z,98315.34
2023-02-26T23:50:15.051Z,98333.44
2023-02-26T23:52:48.206Z,98333.50
2023-02-26T23:55:21.498Z,98323.56
2023-02-26T23:57:54.538Z,98325.84
